Terminal Aerodrome Forecast
Issued by NWS Charleston, WV

Home | Current Version | Previous Version | Text Only | Print | Product List | Glossary On
Versions: 1 2 3 4 5 6 7 8 9 10 11 12 13 14 15 16 17 18 19 20 21 22
000
FTUS41 KRLX 192300
TAFPKB
TAF
KPKB 192333Z 2000/2024 12011G19KT 6SM SHRA BR OVC050
     FM200300 15010G17KT 6SM BR OVC060
     FM200700 17009KT 6SM SHRA BR OVC035
     FM200900 20008KT P6SM OVC030
     FM201200 20008G13KT P6SM BKN035
     FM201500 20011G19KT P6SM VCTS BKN035CB
     FM201900 22013G23KT 6SM SHRA VCTS BKN040CB=

USA.gov is the U.S. government's official web portal to all federal, state and local government web resources and services.